createdAt,value
2019-03-03T00:00:06.797Z,100413.98
2019-03-03T00:01:24.225Z,100414.91
2019-03-03T00:02:31.271Z,100410.28
2019-03-03T00:03:38.073Z,100401.74
2019-03-03T00:04:45.029Z,100406.48
2019-03-03T00:05:52.127Z,100408.17
2019-03-03T00:06:58.815Z,100409.03
2019-03-03T00:08:05.649Z,100406.89
2019-03-03T00:09:12.309Z,100404.72
2019-03-03T00:10:19.760Z,100412.42
2019-03-03T00:11:26.505Z,100401.40
2019-03-03T00:12:33.668Z,100414.19
2019-03-03T00:13:41.171Z,100407.77
2019-03-03T00:14:48.601Z,100402.68
2019-03-03T00:15:56.106Z,100399.70
2019-03-03T00:17:02.870Z,100399.30
2019-03-03T00:18:10.509Z,100397.22
2019-03-03T00:19:17.187Z,100397.15
2019-03-03T00:20:23.865Z,100401.44
2019-03-03T00:21:30.765Z,100398.91
2019-03-03T00:22:37.426Z,100392.93
2019-03-03T00:23:44.205Z,100395.04
2019-03-03T00:24:51.097Z,100389.48
2019-03-03T00:25:58.343Z,100392.03
2019-03-03T00:27:05.248Z,100386.50
2019-03-03T00:28:12.248Z,100384.36
2019-03-03T00:29:19.648Z,100382.59
2019-03-03T00:30:26.517Z,100381.76
2019-03-03T00:31:39.546Z,100376.69
2019-03-03T00:32:46.954Z,100374.19
2019-03-03T00:33:53.690Z,100372.46
2019-03-03T00:35:00.931Z,100368.14
2019-03-03T00:36:07.664Z,100361.40
2019-03-03T00:37:25.730Z,100366.07
2019-03-03T00:39:09.967Z,100361.81
2019-03-03T00:40:41.360Z,100363.89
2019-03-03T00:42:05.942Z,100354.55
2019-03-03T00:43:39.104Z,100354.52
2019-03-03T00:44:55.226Z,100352.83
2019-03-03T00:46:19.649Z,100350.75
2019-03-03T00:47:44.194Z,100348.61
2019-03-03T00:49:04.210Z,100343.12
2019-03-03T00:50:25.491Z,100350.45
2019-03-03T00:51:37.771Z,100351.80
2019-03-03T00:53:02.099Z,100353.88
2019-03-03T00:54:29.841Z,100343.64
2019-03-03T00:55:47.903Z,100347.09
2019-03-03T00:57:16.214Z,100337.20
2019-03-03T00:58:48.456Z,100331.71
2019-03-03T01:00:05.268Z,100330.81
2019-03-03T01:01:34.549Z,100328.59
2019-03-03T01:02:46.078Z,100337.09
2019-03-03T01:04:00.952Z,100329.46
2019-03-03T01:05:43.118Z,100319.19
2019-03-03T01:07:11.598Z,100327.28
2019-03-03T01:08:40.285Z,100322.54
2019-03-03T01:10:12.173Z,100318.25
2019-03-03T01:11:44.622Z,100320.81
2019-03-03T01:12:56.429Z,100321.26
2019-03-03T01:14:37.120Z,100316.56
2019-03-03T01:15:57.836Z,100307.19
2019-03-03T01:17:30.237Z,100312.23
2019-03-03T01:18:55.829Z,100312.56
2019-03-03T01:20:20.441Z,100315.88
2019-03-03T01:21:46.037Z,100306.43
2019-03-03T01:23:11.827Z,100308.46
2019-03-03T01:24:36.430Z,100315.31
2019-03-03T01:25:43.114Z,100300.83
2019-03-03T01:26:50.282Z,100305.49
2019-03-03T01:27:57.019Z,100303.80
2019-03-03T01:29:06.339Z,100309.70
2019-03-03T01:30:14.429Z,100302.02
2019-03-03T01:31:21.497Z,100302.52
2019-03-03T01:32:28.555Z,100291.37
2019-03-03T01:33:35.733Z,100293.94
2019-03-03T01:34:42.458Z,100295.22
2019-03-03T01:35:49.395Z,100286.75
2019-03-03T01:36:56.605Z,100286.75
2019-03-03T01:38:03.719Z,100282.13
2019-03-03T01:39:10.826Z,100288.86
2019-03-03T01:40:17.850Z,100280.84
2019-03-03T01:41:24.866Z,100286.83
2019-03-03T01:42:31.577Z,100281.71
2019-03-03T01:43:38.459Z,100284.37
2019-03-03T01:44:45.187Z,100277.13
2019-03-03T01:45:51.843Z,100282.98
2019-03-03T01:46:58.879Z,100282.13
2019-03-03T01:48:05.883Z,100282.50
2019-03-03T01:49:12.600Z,100282.42
2019-03-03T01:50:19.312Z,100281.55
2019-03-03T01:51:26.338Z,100282.80
2019-03-03T01:52:33.058Z,100280.16
2019-03-03T01:53:40.194Z,100272.06
2019-03-03T01:54:47.015Z,100277.14
2019-03-03T01:55:53.991Z,100267.70
2019-03-03T01:57:01.388Z,100267.73
2019-03-03T01:58:08.451Z,100263.78
2019-03-03T01:59:15.150Z,100258.63
2019-03-03T02:00:25.794Z,100265.06
2019-03-03T02:01:32.549Z,100256.47
2019-03-03T02:02:39.224Z,100261.55
2019-03-03T02:03:45.914Z,100268.33
2019-03-03T02:04:52.851Z,100253.76
2019-03-03T02:05:59.839Z,100235.91
2019-03-03T02:07:06.660Z,100246.57
2019-03-03T02:08:13.757Z,100243.97
2019-03-03T02:09:20.471Z,100242.23
2019-03-03T02:10:27.354Z,100239.63
2019-03-03T02:11:34.946Z,100240.54
2019-03-03T02:12:42.325Z,100234.14
2019-03-03T02:13:49.318Z,100232.41
2019-03-03T02:14:55.949Z,100225.14
2019-03-03T02:16:04.667Z,100225.14
2019-03-03T02:17:12.108Z,100224.15
2019-03-03T02:18:30.817Z,100219.81
2019-03-03T02:19:38.229Z,100210.86
2019-03-03T02:20:44.965Z,100206.52
2019-03-03T02:21:52.153Z,100203.51
2019-03-03T02:22:59.133Z,100218.83
2019-03-03T02:24:06.303Z,100210.27
2019-03-03T02:25:13.012Z,100222.25
2019-03-03T02:26:20.080Z,100216.18
2019-03-03T02:27:26.818Z,100225.55
2019-03-03T02:28:34.654Z,100218.73
2019-03-03T02:29:41.639Z,100215.31
2019-03-03T02:30:48.397Z,100216.14
2019-03-03T02:31:55.506Z,100211.39
2019-03-03T02:33:02.195Z,100211.76
2019-03-03T02:34:08.890Z,100208.30
2019-03-03T02:35:16.495Z,100204.12
2019-03-03T02:36:23.202Z,100205.73
2019-03-03T02:37:29.886Z,100207.88
2019-03-03T02:38:36.868Z,100206.14
2019-03-03T02:39:43.576Z,100206.14
2019-03-03T02:40:50.699Z,100199.33
2019-03-03T02:41:57.653Z,100195.90
2019-03-03T02:43:04.330Z,100193.25
2019-03-03T02:44:11.535Z,100177.44
2019-03-03T02:45:19.845Z,100195.36
2019-03-03T02:46:26.889Z,100188.50
2019-03-03T02:47:33.942Z,100187.22
2019-03-03T02:48:40.664Z,100196.55
2019-03-03T02:49:47.364Z,100198.30
2019-03-03T02:50:54.085Z,100189.73
2019-03-03T02:52:00.789Z,100194.41
2019-03-03T02:53:07.937Z,100183.37
2019-03-03T02:54:14.612Z,100183.84
2019-03-03T02:55:21.268Z,100182.47
2019-03-03T02:56:28.350Z,100188.41
2019-03-03T02:57:35.052Z,100186.68
2019-03-03T02:58:41.740Z,100191.35
2019-03-03T02:59:48.550Z,100193.08
2019-03-03T03:01:12.922Z,100189.33
2019-03-03T03:02:37.396Z,100179.05
2019-03-03T03:03:44.134Z,100177.77
2019-03-03T03:04:50.923Z,100162.80
2019-03-03T03:06:28.636Z,100173.00
2019-03-03T03:07:46.272Z,100170.44
2019-03-03T03:09:10.753Z,100173.88
2019-03-03T03:10:33.729Z,100173.50
2019-03-03T03:12:02.451Z,100159.01
2019-03-03T03:13:37.361Z,100178.22
2019-03-03T03:14:51.899Z,100158.19
2019-03-03T03:16:13.615Z,100155.13
2019-03-03T03:17:48.576Z,100162.80
2019-03-03T03:19:03.810Z,100164.59
2019-03-03T03:20:35.297Z,100166.69
2019-03-03T03:22:03.873Z,100162.07
2019-03-03T03:23:33.660Z,100159.09
2019-03-03T03:24:48.853Z,100154.84
2019-03-03T03:26:33.040Z,100155.30
2019-03-03T03:28:01.754Z,100150.64
2019-03-03T03:29:30.333Z,100146.88
2019-03-03T03:31:08.205Z,100134.53
2019-03-03T03:32:24.053Z,100141.77
2019-03-03T03:33:51.327Z,100140.56
2019-03-03T03:35:19.771Z,100143.13
2019-03-03T03:36:45.546Z,100135.03
2019-03-03T03:37:59.262Z,100136.27
2019-03-03T03:39:29.290Z,100133.30
2019-03-03T03:40:54.003Z,100133.38
2019-03-03T03:42:23.735Z,100135.08
2019-03-03T03:43:55.519Z,100138.14
2019-03-03T03:45:19.697Z,100126.62
2019-03-03T03:46:38.237Z,100127.07
2019-03-03T03:48:02.654Z,100119.94
2019-03-03T03:49:22.682Z,100109.00
2019-03-03T03:50:57.109Z,100125.69
2019-03-03T03:52:32.272Z,100116.44
2019-03-03T03:53:49.494Z,100118.22
2019-03-03T03:55:18.394Z,100116.48
2019-03-03T03:57:01.107Z,100111.45
2019-03-03T03:58:25.924Z,100108.16
2019-03-03T03:59:47.706Z,100107.09
2019-03-03T04:01:11.990Z,100105.02
2019-03-03T04:02:30.612Z,100106.89
2019-03-03T04:04:14.721Z,100109.53
2019-03-03T04:05:27.854Z,100098.88
2019-03-03T04:06:42.360Z,100095.45
2019-03-03T04:08:12.279Z,100098.47
2019-03-03T04:09:41.574Z,100093.80
2019-03-03T04:11:07.396Z,100095.91
2019-03-03T04:12:42.618Z,100089.56
2019-03-03T04:14:07.447Z,100094.63
2019-03-03T04:15:39.031Z,100092.36
2019-03-03T04:17:13.873Z,100083.81
2019-03-03T04:18:25.617Z,100087.61
2019-03-03T04:19:39.331Z,100083.31
2019-03-03T04:20:57.076Z,100081.59
2019-03-03T04:22:11.138Z,100079.48
2019-03-03T04:23:39.740Z,100082.04
2019-03-03T04:24:57.662Z,100087.94
2019-03-03T04:26:22.151Z,100070.03
2019-03-03T04:28:06.213Z,100076.92
2019-03-03T04:29:31.749Z,100080.84
2019-03-03T04:30:44.930Z,100072.89
2019-03-03T04:32:09.804Z,100075.17
2019-03-03T04:33:44.538Z,100068.81
2019-03-03T04:35:10.415Z,100074.80
2019-03-03T04:36:31.909Z,100075.66
2019-03-03T04:37:49.557Z,100073.47
2019-03-03T04:39:07.087Z,100074.76
2019-03-03T04:40:21.948Z,100073.93
2019-03-03T04:41:36.860Z,100069.22
2019-03-03T04:43:04.717Z,100070.55
2019-03-03T04:44:20.119Z,100064.64
2019-03-03T04:45:51.960Z,100061.14
2019-03-03T04:47:20.656Z,100069.27
2019-03-03T04:48:35.384Z,100068.41
2019-03-03T04:50:10.629Z,100077.90
2019-03-03T04:51:36.213Z,100066.02
2019-03-03T04:52:58.638Z,100066.14
2019-03-03T04:54:33.309Z,100058.63
2019-03-03T04:55:48.860Z,100069.78
2019-03-03T04:57:23.824Z,100058.80
2019-03-03T04:58:41.747Z,100060.98
2019-03-03T05:00:13.116Z,100053.41
2019-03-03T05:01:42.043Z,100052.95
2019-03-03T05:02:57.034Z,100056.91
2019-03-03T05:04:37.917Z,100051.38
2019-03-03T05:06:06.373Z,100049.73
2019-03-03T05:07:46.821Z,100041.56
2019-03-03T05:09:27.736Z,100051.75
2019-03-03T05:10:46.107Z,100053.06
2019-03-03T05:12:43.422Z,100047.91
2019-03-03T05:13:55.057Z,100059.95
2019-03-03T05:15:26.767Z,100060.33
2019-03-03T05:16:46.236Z,100051.00
2019-03-03T05:18:01.012Z,100053.98
2019-03-03T05:19:12.000Z,100045.48
2019-03-03T05:20:19.056Z,100048.45
2019-03-03T05:21:25.730Z,100048.45
2019-03-03T05:22:32.398Z,100045.03
2019-03-03T05:23:39.452Z,100043.75
2019-03-03T05:24:46.151Z,100047.25
2019-03-03T05:25:53.525Z,100038.30
2019-03-03T05:27:00.359Z,100044.25
2019-03-03T05:28:07.368Z,100036.48
2019-03-03T05:29:14.345Z,100035.21
2019-03-03T05:30:21.037Z,100035.17
2019-03-03T05:31:29.353Z,100039.42
2019-03-03T05:32:36.230Z,100042.34
2019-03-03T05:33:43.251Z,100030.05
2019-03-03T05:34:49.957Z,100035.95
2019-03-03T05:35:56.716Z,100035.45
2019-03-03T05:37:03.403Z,100032.94
2019-03-03T05:38:10.264Z,100042.80
2019-03-03T05:39:17.770Z,100033.77
2019-03-03T05:40:24.450Z,100036.82
2019-03-03T05:41:31.522Z,100038.51
2019-03-03T05:42:38.578Z,100037.69
2019-03-03T05:43:45.672Z,100033.84
2019-03-03T05:44:52.348Z,100031.70
2019-03-03T05:45:58.995Z,100035.95
2019-03-03T05:47:06.037Z,100033.84
2019-03-03T05:48:13.060Z,100026.17
2019-03-03T05:49:20.111Z,100027.00
2019-03-03T05:50:26.790Z,100018.42
2019-03-03T05:51:33.910Z,100021.39
2019-03-03T05:52:40.633Z,100023.50
2019-03-03T05:53:47.755Z,100020.52
2019-03-03T05:54:54.804Z,100028.61
2019-03-03T05:56:01.485Z,100024.77
2019-03-03T05:57:08.574Z,100020.11
2019-03-03T05:58:15.267Z,100020.52
2019-03-03T05:59:22.258Z,100027.34
2019-03-03T06:00:28.953Z,100027.34
2019-03-03T06:01:35.731Z,100012.40
2019-03-03T06:02:42.796Z,100023.86
2019-03-03T06:03:49.474Z,100019.62
2019-03-03T06:04:56.579Z,100015.41
2019-03-03T06:06:03.598Z,100026.42
2019-03-03T06:07:10.336Z,100016.23
2019-03-03T06:08:17.401Z,100022.17
2019-03-03T06:09:24.393Z,100032.03
2019-03-03T06:10:31.146Z,100027.74
2019-03-03T06:11:38.166Z,100020.89
2019-03-03T06:12:44.877Z,100028.52
2019-03-03T06:13:51.839Z,100028.19
2019-03-03T06:14:58.631Z,100025.97
2019-03-03T06:16:05.386Z,100020.89
2019-03-03T06:17:12.345Z,100014.91
2019-03-03T06:18:19.373Z,100023.86
2019-03-03T06:19:26.047Z,100022.95
2019-03-03T06:20:33.073Z,100022.95
2019-03-03T06:21:39.778Z,100022.95
2019-03-03T06:22:46.943Z,100019.53
2019-03-03T06:23:53.640Z,100020.81
2019-03-03T06:25:00.706Z,100015.66
2019-03-03T06:26:07.738Z,100022.00
2019-03-03T06:27:14.716Z,100023.66
2019-03-03T06:28:21.563Z,100021.05
2019-03-03T06:29:28.533Z,100014.66
2019-03-03T06:30:35.210Z,100020.59
2019-03-03T06:31:41.973Z,100018.49
2019-03-03T06:32:49.329Z,100012.55
2019-03-03T06:33:56.082Z,100012.97
2019-03-03T06:35:03.042Z,100015.16
2019-03-03T06:36:09.698Z,100003.69
2019-03-03T06:37:16.380Z,100019.44
2019-03-03T06:38:23.487Z,100013.87
2019-03-03T06:39:30.185Z,100024.11
2019-03-03T06:40:37.224Z,100021.05
2019-03-03T06:41:43.866Z,100015.89
2019-03-03T06:42:50.552Z,100013.83
2019-03-03T06:43:57.589Z,100022.33
2019-03-03T06:45:04.803Z,100015.94
2019-03-03T06:46:11.522Z,100017.67
2019-03-03T06:47:18.171Z,100015.94
2019-03-03T06:48:25.219Z,100018.54
2019-03-03T06:49:31.918Z,100015.98
2019-03-03T06:50:39.011Z,100023.11
2019-03-03T06:51:45.903Z,100021.83
2019-03-03T06:52:52.569Z,100023.11
2019-03-03T06:53:59.805Z,100022.29
2019-03-03T06:55:07.231Z,100021.74
2019-03-03T06:56:14.116Z,100009.78
2019-03-03T06:57:20.859Z,100014.81
2019-03-03T06:58:27.810Z,100013.86
2019-03-03T06:59:34.502Z,100011.25
2019-03-03T07:00:41.556Z,100018.93
2019-03-03T07:01:48.756Z,100016.78
2019-03-03T07:02:55.532Z,100020.16
2019-03-03T07:04:02.184Z,100016.31
2019-03-03T07:05:10.711Z,100020.16
2019-03-03T07:06:17.795Z,100022.67
2019-03-03T07:07:24.818Z,100015.81
2019-03-03T07:08:31.520Z,100025.59
2019-03-03T07:09:38.369Z,100016.27
2019-03-03T07:10:45.342Z,100016.69
2019-03-03T07:11:52.053Z,100016.31
2019-03-03T07:12:59.121Z,100022.26
2019-03-03T07:14:05.837Z,100018.88
2019-03-03T07:15:15.677Z,100022.71
2019-03-03T07:16:22.347Z,100024.81
2019-03-03T07:17:29.029Z,100021.45
2019-03-03T07:18:36.021Z,100017.19
2019-03-03T07:19:43.101Z,100020.57
2019-03-03T07:20:50.134Z,100020.61
2019-03-03T07:21:57.129Z,100021.85
2019-03-03T07:23:03.857Z,100026.97
2019-03-03T07:24:10.914Z,100022.26
2019-03-03T07:25:17.625Z,100028.70
2019-03-03T07:26:24.505Z,100019.30
2019-03-03T07:27:31.267Z,100030.39
2019-03-03T07:28:37.948Z,100032.90
2019-03-03T07:29:44.624Z,100023.98
2019-03-03T07:30:51.646Z,100027.84
2019-03-03T07:31:58.706Z,100034.28
2019-03-03T07:33:16.458Z,100036.88
2019-03-03T07:34:23.566Z,100036.84
2019-03-03T07:35:30.570Z,100041.13
2019-03-03T07:36:37.567Z,100035.60
2019-03-03T07:37:44.450Z,100037.83
2019-03-03T07:38:51.074Z,100043.32
2019-03-03T07:39:58.546Z,100030.94
2019-03-03T07:41:05.606Z,100028.88
2019-03-03T07:42:12.480Z,100036.09
2019-03-03T07:43:19.232Z,100038.25
2019-03-03T07:44:27.055Z,100034.41
2019-03-03T07:45:33.784Z,100029.25
2019-03-03T07:46:40.476Z,100032.59
2019-03-03T07:47:47.559Z,100028.75
2019-03-03T07:48:54.310Z,100031.86
2019-03-03T07:50:01.373Z,100031.86
2019-03-03T07:51:08.069Z,100029.75
2019-03-03T07:52:14.848Z,100034.04
2019-03-03T07:53:21.621Z,100030.20
2019-03-03T07:54:28.457Z,100036.55
2019-03-03T07:55:35.451Z,100030.98
2019-03-03T07:56:42.496Z,100038.20
2019-03-03T07:57:49.606Z,100037.78
2019-03-03T07:58:56.710Z,100043.69
2019-03-03T08:00:03.895Z,100044.52
2019-03-03T08:01:10.625Z,100050.03
2019-03-03T08:02:17.731Z,100043.64
2019-03-03T08:03:25.086Z,100046.56
2019-03-03T08:04:31.766Z,100053.78
2019-03-03T08:05:38.429Z,100051.18
2019-03-03T08:06:45.477Z,100039.63
2019-03-03T08:07:52.495Z,100046.35
2019-03-03T08:08:59.336Z,100045.88
2019-03-03T08:10:06.850Z,100042.05
2019-03-03T08:11:13.918Z,100043.33
2019-03-03T08:12:21.593Z,100040.69
2019-03-03T08:13:28.320Z,100040.31
2019-03-03T08:14:35.383Z,100044.53
2019-03-03T08:15:42.404Z,100045.34
2019-03-03T08:16:52.493Z,100040.64
2019-03-03T08:17:59.605Z,100037.21
2019-03-03T08:19:06.653Z,100038.82
2019-03-03T08:20:13.465Z,100039.73
2019-03-03T08:21:20.665Z,100038.41
2019-03-03T08:22:27.626Z,100046.08
2019-03-03T08:23:34.879Z,100034.94
2019-03-03T08:24:42.084Z,100043.94
2019-03-03T08:25:49.020Z,100042.23
2019-03-03T08:26:55.781Z,100033.66
2019-03-03T08:28:02.493Z,100033.61
2019-03-03T08:29:09.201Z,100036.13
2019-03-03T08:30:16.594Z,100033.16
2019-03-03T08:31:24.420Z,100027.95
2019-03-03T08:32:31.492Z,100036.08
2019-03-03T08:33:38.140Z,100035.12
2019-03-03T08:34:44.835Z,100035.45
2019-03-03T08:35:51.677Z,100038.47
2019-03-03T08:37:00.275Z,100035.03
2019-03-03T08:38:07.426Z,100034.08
2019-03-03T08:39:14.137Z,100046.00
2019-03-03T08:40:20.874Z,100045.10
2019-03-03T08:41:27.784Z,100038.70
2019-03-03T08:42:59.658Z,100041.26
2019-03-03T08:44:40.082Z,100035.22
2019-03-03T08:46:21.167Z,100041.17
2019-03-03T08:47:41.808Z,100040.67
2019-03-03T08:48:53.577Z,100038.52
2019-03-03T08:50:13.674Z,100036.83
2019-03-03T08:51:35.655Z,100041.08
2019-03-03T08:52:53.513Z,100031.80
2019-03-03T08:54:17.744Z,100030.92
2019-03-03T08:55:55.746Z,100033.16
2019-03-03T08:57:13.431Z,100031.80
2019-03-03T08:58:48.449Z,100033.94
2019-03-03T09:00:10.297Z,100025.91
2019-03-03T09:01:41.947Z,100031.56
2019-03-03T09:03:15.046Z,100037.09
2019-03-03T09:04:41.096Z,100029.79
2019-03-03T09:06:06.562Z,100020.91
2019-03-03T09:07:21.756Z,100026.86
2019-03-03T09:08:40.917Z,100034.25
2019-03-03T09:10:06.374Z,100033.34
2019-03-03T09:11:44.833Z,100029.14
2019-03-03T09:13:09.795Z,100031.33
2019-03-03T09:14:33.685Z,100023.20
2019-03-03T09:15:59.104Z,100032.24
2019-03-03T09:17:28.009Z,100024.56
2019-03-03T09:18:48.550Z,100020.27
2019-03-03T09:20:27.136Z,100019.04
2019-03-03T09:21:51.552Z,100016.89
2019-03-03T09:23:16.081Z,100018.16
2019-03-03T09:24:41.988Z,100016.89
2019-03-03T09:26:06.591Z,100020.64
2019-03-03T09:27:34.953Z,100022.33
2019-03-03T09:29:13.275Z,100013.42
2019-03-03T09:30:44.896Z,100021.88
2019-03-03T09:32:25.728Z,100016.76
2019-03-03T09:33:51.112Z,100020.22
2019-03-03T09:35:34.890Z,100017.98
2019-03-03T09:36:53.535Z,100016.26
2019-03-03T09:38:17.792Z,100014.52
2019-03-03T09:39:46.422Z,100014.16
2019-03-03T09:41:03.205Z,100009.48
2019-03-03T09:42:44.013Z,100015.34
2019-03-03T09:44:12.997Z,100012.28
2019-03-03T09:45:37.510Z,100011.45
2019-03-03T09:47:12.047Z,100015.29
2019-03-03T09:48:38.110Z,100005.42
2019-03-03T09:50:03.080Z,100007.11
2019-03-03T09:51:16.934Z,100013.11
2019-03-03T09:52:42.149Z,100011.68
2019-03-03T09:54:01.721Z,100010.91
2019-03-03T09:55:27.756Z,100009.63
2019-03-03T09:56:59.402Z,100004.55
2019-03-03T09:58:23.512Z,100004.55
2019-03-03T09:59:48.030Z,100001.99
2019-03-03T10:01:06.414Z,100002.45
2019-03-03T10:02:22.229Z,99994.27
2019-03-03T10:03:49.079Z,99991.20
2019-03-03T10:05:21.921Z,99993.77
2019-03-03T10:06:46.596Z,99992.08
2019-03-03T10:08:18.004Z,99992.39
2019-03-03T10:09:42.640Z,99994.45
2019-03-03T10:11:07.626Z,99989.38
2019-03-03T10:12:23.440Z,99993.54
2019-03-03T10:13:46.230Z,99993.89
2019-03-03T10:15:06.996Z,99999.94
2019-03-03T10:16:42.068Z,99990.11
2019-03-03T10:18:02.002Z,99992.62
2019-03-03T10:19:23.769Z,99993.03
2019-03-03T10:21:07.996Z,99993.89
2019-03-03T10:22:32.042Z,99992.56
2019-03-03T10:23:53.016Z,99986.48
2019-03-03T10:25:17.819Z,99995.91
2019-03-03T10:26:42.171Z,99988.59
2019-03-03T10:28:10.923Z,99993.63
2019-03-03T10:29:36.837Z,99990.61
2019-03-03T10:30:58.904Z,99986.44
2019-03-03T10:32:17.809Z,99982.97
2019-03-03T10:33:42.811Z,99991.98
2019-03-03T10:35:11.545Z,99984.61
2019-03-03T10:36:52.653Z,99991.94
2019-03-03T10:38:37.205Z,99990.66
2019-03-03T10:40:21.106Z,99986.72
2019-03-03T10:41:47.453Z,99984.56
2019-03-03T10:43:19.268Z,99983.60
2019-03-03T10:44:44.267Z,99983.09
2019-03-03T10:46:19.063Z,99977.09
2019-03-03T10:47:47.399Z,99977.97
2019-03-03T10:49:14.629Z,99983.09
2019-03-03T10:50:34.799Z,99974.14
2019-03-03T10:52:00.716Z,99967.23
2019-03-03T10:53:13.158Z,99976.19
2019-03-03T10:54:41.509Z,99971.92
2019-03-03T10:56:09.105Z,99965.89
2019-03-03T10:57:33.935Z,99968.00
2019-03-03T10:59:15.312Z,99965.75
2019-03-03T11:00:50.093Z,99963.61
2019-03-03T11:02:06.831Z,99964.01
2019-03-03T11:03:44.585Z,99956.37
2019-03-03T11:05:04.924Z,99955.09
2019-03-03T11:06:29.451Z,99954.22
2019-03-03T11:08:01.945Z,99955.50
2019-03-03T11:09:33.828Z,99956.65
2019-03-03T11:10:57.347Z,99951.52
2019-03-03T11:12:18.942Z,99954.89
2019-03-03T11:13:39.619Z,99950.41
2019-03-03T11:15:21.210Z,99948.98
2019-03-03T11:16:40.807Z,99952.77
2019-03-03T11:18:09.782Z,99957.33
2019-03-03T11:19:34.241Z,99949.97
2019-03-03T11:21:06.139Z,99948.17
2019-03-03T11:22:18.955Z,99947.75
2019-03-03T11:23:45.109Z,99940.78
2019-03-03T11:25:09.481Z,99947.45
2019-03-03T11:26:53.621Z,99943.00
2019-03-03T11:28:25.374Z,99944.70
2019-03-03T11:29:54.614Z,99950.59
2019-03-03T11:31:11.621Z,99945.00
2019-03-03T11:32:27.464Z,99945.77
2019-03-03T11:33:59.602Z,99946.48
2019-03-03T11:35:28.911Z,99940.84
2019-03-03T11:36:54.894Z,99947.01
2019-03-03T11:38:10.368Z,99947.36
2019-03-03T11:39:35.756Z,99947.92
2019-03-03T11:40:56.409Z,99941.09
2019-03-03T11:42:11.425Z,99936.59
2019-03-03T11:43:49.540Z,99940.89
2019-03-03T11:45:18.646Z,99930.98
2019-03-03T11:46:47.571Z,99942.95
2019-03-03T11:48:05.357Z,99937.00
2019-03-03T11:49:30.092Z,99936.59
2019-03-03T11:50:55.712Z,99941.24
2019-03-03T11:52:22.101Z,99936.43
2019-03-03T11:53:46.925Z,99929.39
2019-03-03T11:55:12.415Z,99925.28
2019-03-03T11:56:38.933Z,99930.48
2019-03-03T11:57:52.489Z,99925.28
2019-03-03T11:59:33.491Z,99923.64
2019-03-03T12:01:04.798Z,99923.58
2019-03-03T12:02:29.251Z,99929.05
2019-03-03T12:03:54.899Z,99911.53
2019-03-03T12:05:19.349Z,99911.11
2019-03-03T12:06:57.263Z,99920.50
2019-03-03T12:08:26.045Z,99911.88
2019-03-03T12:09:48.998Z,99917.34
2019-03-03T12:11:16.694Z,99909.02
2019-03-03T12:12:48.290Z,99914.72
2019-03-03T12:14:04.388Z,99907.39
2019-03-03T12:15:26.473Z,99913.80
2019-03-03T12:16:50.825Z,99902.55
2019-03-03T12:18:22.428Z,99905.00
2019-03-03T12:19:49.017Z,99903.35
2019-03-03T12:21:04.813Z,99907.14
2019-03-03T12:22:22.268Z,99901.27
2019-03-03T12:23:41.081Z,99906.52
2019-03-03T12:25:18.835Z,99899.22
2019-03-03T12:26:37.605Z,99898.28
2019-03-03T12:28:02.096Z,99896.11
2019-03-03T12:29:31.659Z,99895.66
2019-03-03T12:30:45.711Z,99894.83
2019-03-03T12:32:17.228Z,99891.88
2019-03-03T12:33:32.821Z,99885.40
2019-03-03T12:35:01.788Z,99887.97
2019-03-03T12:36:28.326Z,99890.02
2019-03-03T12:37:40.417Z,99892.58
2019-03-03T12:38:56.220Z,99896.83
2019-03-03T12:40:20.529Z,99881.74
2019-03-03T12:41:40.594Z,99889.44
2019-03-03T12:43:06.236Z,99886.81
2019-03-03T12:44:27.524Z,99886.24
2019-03-03T12:46:03.562Z,99875.47
2019-03-03T12:47:41.305Z,99872.84
2019-03-03T12:49:08.110Z,99876.17
2019-03-03T12:50:31.302Z,99877.45
2019-03-03T12:52:00.159Z,99876.05
2019-03-03T12:53:25.496Z,99873.97
2019-03-03T12:54:50.688Z,99862.13
2019-03-03T12:56:19.424Z,99860.95
2019-03-03T12:57:43.594Z,99866.66
2019-03-03T12:59:07.550Z,99880.98
2019-03-03T13:00:26.235Z,99868.61
2019-03-03T13:02:07.268Z,99866.47
2019-03-03T13:03:42.063Z,99866.93
2019-03-03T13:05:07.574Z,99857.55
2019-03-03T13:06:39.067Z,99861.03
2019-03-03T13:08:13.844Z,99855.11
2019-03-03T13:09:46.339Z,99860.66
2019-03-03T13:11:27.548Z,99859.47
2019-03-03T13:12:56.111Z,99857.19
2019-03-03T13:14:19.777Z,99858.84
2019-03-03T13:15:57.734Z,99847.23
2019-03-03T13:17:22.793Z,99845.08
2019-03-03T13:18:51.694Z,99849.28
2019-03-03T13:20:17.725Z,99843.58
2019-03-03T13:21:34.229Z,99847.48
2019-03-03T13:23:05.769Z,99849.99
2019-03-03T13:24:22.650Z,99848.19
2019-03-03T13:25:47.769Z,99837.93
2019-03-03T13:27:16.374Z,99846.09
2019-03-03T13:28:32.302Z,99847.25
2019-03-03T13:30:04.815Z,99846.84
2019-03-03T13:31:18.329Z,99846.48
2019-03-03T13:32:42.434Z,99842.12
2019-03-03T13:33:59.668Z,99836.16
2019-03-03T13:35:34.979Z,99837.93
2019-03-03T13:37:03.950Z,99843.06
2019-03-03T13:38:26.611Z,99832.38
2019-03-03T13:39:42.956Z,99835.77
2019-03-03T13:40:59.304Z,99832.31
2019-03-03T13:42:28.133Z,99830.94
2019-03-03T13:43:34.875Z,99835.64
2019-03-03T13:44:41.564Z,99839.09
2019-03-03T13:45:48.492Z,99834.02
2019-03-03T13:46:55.181Z,99838.21
2019-03-03T13:48:02.269Z,99839.49
2019-03-03T13:49:09.142Z,99836.02
2019-03-03T13:50:18.130Z,99830.52
2019-03-03T13:51:25.126Z,99822.76
2019-03-03T13:52:31.856Z,99830.00
2019-03-03T13:53:38.577Z,99833.72
2019-03-03T13:54:45.681Z,99829.94
2019-03-03T13:55:52.850Z,99834.03
2019-03-03T13:57:00.170Z,99829.66
2019-03-03T13:58:07.312Z,99824.47
2019-03-03T13:59:14.024Z,99823.06
2019-03-03T14:00:22.663Z,99823.48
2019-03-03T14:01:29.544Z,99818.70
2019-03-03T14:02:36.646Z,99818.23
2019-03-03T14:03:43.635Z,99822.02
2019-03-03T14:04:50.804Z,99818.70
2019-03-03T14:05:57.480Z,99816.66
2019-03-03T14:07:04.181Z,99813.69
2019-03-03T14:08:11.703Z,99814.20
2019-03-03T14:09:18.622Z,99808.55
2019-03-03T14:10:25.632Z,99813.81
2019-03-03T14:11:32.889Z,99810.12
2019-03-03T14:12:39.968Z,99805.93
2019-03-03T14:13:46.862Z,99804.28
2019-03-03T14:14:53.550Z,99811.98
2019-03-03T14:16:00.626Z,99803.83
2019-03-03T14:17:08.284Z,99800.95
2019-03-03T14:18:15.374Z,99797.23
2019-03-03T14:19:22.247Z,99791.70
2019-03-03T14:20:29.199Z,99787.85
2019-03-03T14:21:35.948Z,99786.97
2019-03-03T14:22:42.625Z,99792.34
2019-03-03T14:23:49.559Z,99787.30
2019-03-03T14:24:57.199Z,99781.26
2019-03-03T14:26:04.060Z,99785.11
2019-03-03T14:27:10.966Z,99782.17
2019-03-03T14:28:18.200Z,99782.54
2019-03-03T14:29:25.056Z,99778.33
2019-03-03T14:30:32.171Z,99780.03
2019-03-03T14:31:38.835Z,99777.56
2019-03-03T14:32:45.895Z,99775.00
2019-03-03T14:33:52.663Z,99765.56
2019-03-03T14:34:59.667Z,99768.59
2019-03-03T14:36:06.846Z,99773.20
2019-03-03T14:37:13.513Z,99763.70
2019-03-03T14:38:20.547Z,99764.74
2019-03-03T14:39:27.749Z,99768.12